createdAt,value
2023-02-27T00:01:00.414Z,96457.75
2023-02-27T00:03:28.285Z,96452.06
2023-02-27T00:05:56.467Z,96454.59
2023-02-27T00:08:24.424Z,96465.94
2023-02-27T00:10:52.172Z,96460.31
2023-02-27T00:13:19.870Z,96448.94
2023-02-27T00:15:49.464Z,96445.03
2023-02-27T00:18:17.323Z,96445.53
2023-02-27T00:20:45.082Z,96445.34
2023-02-27T00:23:12.821Z,96440.13
2023-02-27T00:25:40.644Z,96445.53
2023-02-27T00:28:08.317Z,96433.63
2023-02-27T00:30:36.049Z,96448.38
2023-02-27T00:33:03.997Z,96441.06
2023-02-27T00:35:31.737Z,96435.22
2023-02-27T00:37:59.412Z,96416.13
2023-02-27T00:40:27.383Z,96421.19
2023-02-27T00:42:55.106Z,96414.19
2023-02-27T00:45:22.951Z,96419.88
2023-02-27T00:47:50.659Z,96435.22
2023-02-27T00:50:18.454Z,96429.34
2023-02-27T00:52:46.172Z,96436.97
2023-02-27T00:55:13.928Z,96453.03
2023-02-27T00:57:42.009Z,96443.75
2023-02-27T01:00:10.466Z,96448.38
2023-02-27T01:02:39.016Z,96438.78
2023-02-27T01:05:08.845Z,96437.84
2023-02-27T01:07:37.618Z,96445.69
2023-02-27T01:10:06.268Z,96449.03
2023-02-27T01:12:33.933Z,96457.69
2023-02-27T01:15:01.740Z,96468.06
2023-02-27T01:17:29.453Z,96476.03
2023-02-27T01:19:57.475Z,96471.28
2023-02-27T01:22:25.188Z,96459.00
2023-02-27T01:24:52.930Z,96462.06
2023-02-27T01:27:20.679Z,96454.91
2023-02-27T01:29:48.360Z,96471.69
2023-02-27T01:32:16.322Z,96475.97
2023-02-27T01:34:44.654Z,96475.59
2023-02-27T01:37:12.431Z,96481.75
2023-02-27T01:39:43.586Z,96472.94
2023-02-27T01:42:21.830Z,96468.59
2023-02-27T01:45:17.581Z,96469.09
2023-02-27T01:47:47.838Z,96483.50
2023-02-27T01:50:16.104Z,96479.25
2023-02-27T01:52:43.987Z,96485.84
2023-02-27T01:55:13.298Z,96484.25
2023-02-27T01:57:41.195Z,96492.44
2023-02-27T02:00:09.664Z,96495.44
2023-02-27T02:02:44.117Z,96503.03
2023-02-27T02:05:14.445Z,96500.13
2023-02-27T02:07:42.267Z,96502.44
2023-02-27T02:10:11.950Z,96498.25
2023-02-27T02:12:40.681Z,96504.34
2023-02-27T02:15:10.250Z,96514.34
2023-02-27T02:18:00.051Z,96497.19
2023-02-27T02:20:49.748Z,96509.47
2023-02-27T02:23:42.425Z,96521.59
2023-02-27T02:26:31.054Z,96522.56
2023-02-27T02:29:31.815Z,96541.72
2023-02-27T02:32:08.534Z,96538.28
2023-02-27T02:34:50.398Z,96535.38
2023-02-27T02:37:33.891Z,96546.09
2023-02-27T02:40:30.928Z,96558.72
2023-02-27T02:43:06.432Z,96561.06
2023-02-27T02:45:34.033Z,96565.13
2023-02-27T02:48:12.461Z,96574.31
2023-02-27T02:50:58.394Z,96589.59
2023-02-27T02:53:36.053Z,96604.94
2023-02-27T02:56:16.837Z,96615.38
2023-02-27T02:59:18.735Z,96635.41
2023-02-27T03:01:53.324Z,96651.69
2023-02-27T03:04:27.980Z,96743.34
2023-02-27T03:06:59.678Z,96836.72
2023-02-27T03:09:46.481Z,96849.03
2023-02-27T03:12:19.778Z,96877.47
2023-02-27T03:15:17.588Z,96880.47
2023-02-27T03:18:00.584Z,96875.06
2023-02-27T03:20:31.165Z,96876.84
2023-02-27T03:23:00.230Z,96864.59
2023-02-27T03:25:28.334Z,96844.19
2023-02-27T03:28:01.225Z,96834.81
2023-02-27T03:30:36.424Z,96823.78
2023-02-27T03:33:14.405Z,96826.06
2023-02-27T03:35:47.382Z,96837.91
2023-02-27T03:38:23.648Z,96823.22
2023-02-27T03:41:04.198Z,96819.22
2023-02-27T03:43:50.331Z,96809.59
2023-02-27T03:46:21.085Z,96808.88
2023-02-27T03:48:48.845Z,96818.22
2023-02-27T03:51:20.780Z,96835.34
2023-02-27T03:54:07.500Z,96829.16
2023-02-27T03:57:04.400Z,96828.53
2023-02-27T03:59:32.237Z,96859.47
2023-02-27T04:02:00.641Z,96867.66
2023-02-27T04:04:31.805Z,96883.81
2023-02-27T04:07:31.958Z,96882.22
2023-02-27T04:10:44.290Z,96895.13
2023-02-27T04:13:50.533Z,96900.81
2023-02-27T04:16:33.325Z,96897.22
2023-02-27T04:19:12.762Z,96902.03
2023-02-27T04:22:03.354Z,96907.03
2023-02-27T04:25:03.593Z,96923.00
2023-02-27T04:27:38.880Z,96917.84
2023-02-27T04:30:25.612Z,96909.63
2023-02-27T04:32:57.272Z,96921.34
2023-02-27T04:35:44.009Z,96926.59
2023-02-27T04:38:33.942Z,96939.13
2023-02-27T04:41:13.831Z,96946.50
2023-02-27T04:43:41.860Z,96937.34
2023-02-27T04:46:11.163Z,96949.25
2023-02-27T04:48:43.813Z,96955.97
2023-02-27T04:51:14.492Z,96971.25
2023-02-27T04:53:52.228Z,96982.28
2023-02-27T04:56:44.829Z,96988.81
2023-02-27T04:59:17.692Z,97005.78
2023-02-27T05:01:48.219Z,97010.66
2023-02-27T05:04:16.215Z,97010.81
2023-02-27T05:06:45.345Z,97026.50
2023-02-27T05:09:27.148Z,97033.13
2023-02-27T05:11:59.064Z,97042.69
2023-02-27T05:14:34.358Z,97051.44
2023-02-27T05:17:05.216Z,97068.44
2023-02-27T05:19:33.013Z,97065.84
2023-02-27T05:22:11.500Z,97069.31
2023-02-27T05:24:41.761Z,97079.06
2023-02-27T05:27:31.447Z,97090.41
2023-02-27T05:30:12.541Z,97099.09
2023-02-27T05:32:43.567Z,97093.81
2023-02-27T05:35:19.070Z,97095.41
2023-02-27T05:38:08.245Z,97105.13
2023-02-27T05:40:45.347Z,97113.00
2023-02-27T05:43:17.014Z,97117.50
2023-02-27T05:45:46.167Z,97134.41
2023-02-27T05:48:28.890Z,97134.72
2023-02-27T05:50:56.564Z,97149.28
2023-02-27T05:53:26.015Z,97148.09
2023-02-27T05:55:54.477Z,97151.94
2023-02-27T05:58:41.988Z,97160.28
2023-02-27T06:01:10.755Z,97147.53
2023-02-27T06:03:39.245Z,97161.72
2023-02-27T06:06:08.856Z,97157.69
2023-02-27T06:08:36.570Z,97157.00
2023-02-27T06:11:04.320Z,97159.63
2023-02-27T06:13:32.083Z,97166.81
2023-02-27T06:15:59.833Z,97168.69
2023-02-27T06:18:27.586Z,97173.16
2023-02-27T06:20:55.285Z,97173.06
2023-02-27T06:23:23.241Z,97176.06
2023-02-27T06:25:50.996Z,97179.06
2023-02-27T06:28:18.953Z,97185.91
2023-02-27T06:30:46.757Z,97188.84
2023-02-27T06:33:14.533Z,97181.94
2023-02-27T06:35:42.277Z,97184.56
2023-02-27T06:38:10.604Z,97185.69
2023-02-27T06:40:38.564Z,97200.72
2023-02-27T06:43:06.322Z,97206.66
2023-02-27T06:45:34.487Z,97220.50
2023-02-27T06:48:02.181Z,97221.31
2023-02-27T06:50:30.034Z,97228.72
2023-02-27T06:52:57.878Z,97220.94
2023-02-27T06:55:25.803Z,97225.63
2023-02-27T06:57:53.505Z,97227.91
2023-02-27T07:00:21.498Z,97222.94
2023-02-27T07:02:49.285Z,97232.50
2023-02-27T07:05:18.120Z,97231.28
2023-02-27T07:07:46.046Z,97238.41
2023-02-27T07:10:14.470Z,97236.31
2023-02-27T07:12:42.198Z,97241.91
2023-02-27T07:15:10.314Z,97239.56
2023-02-27T07:17:38.073Z,97245.69
2023-02-27T07:20:07.302Z,97253.63
2023-02-27T07:22:35.200Z,97260.16
2023-02-27T07:25:03.448Z,97264.63
2023-02-27T07:27:31.416Z,97270.38
2023-02-27T07:29:59.294Z,97273.22
2023-02-27T07:32:27.636Z,97275.06
2023-02-27T07:34:55.349Z,97272.78
2023-02-27T07:37:23.136Z,97268.81
2023-02-27T07:39:50.795Z,97267.78
2023-02-27T07:42:18.562Z,97266.38
2023-02-27T07:44:46.318Z,97263.38
2023-02-27T07:47:14.071Z,97262.34
2023-02-27T07:49:41.756Z,97285.41
2023-02-27T07:52:09.481Z,97290.28
2023-02-27T07:54:40.148Z,97299.03
2023-02-27T07:57:07.942Z,97299.13
2023-02-27T07:59:35.669Z,97310.22
2023-02-27T08:02:03.477Z,97321.81
2023-02-27T08:04:31.274Z,97322.78
2023-02-27T08:06:59.050Z,97333.47
2023-02-27T08:09:26.796Z,97348.19
2023-02-27T08:11:54.482Z,97347.38
2023-02-27T08:14:22.213Z,97349.16
2023-02-27T08:16:49.955Z,97356.38
2023-02-27T08:19:17.718Z,97349.16
2023-02-27T08:21:45.474Z,97349.09
2023-02-27T08:24:13.246Z,97351.97
2023-02-27T08:26:40.924Z,97359.47
2023-02-27T08:29:08.689Z,97360.44
2023-02-27T08:31:36.447Z,97361.41
2023-02-27T08:34:10.243Z,97365.88
2023-02-27T08:36:38.697Z,97374.22
2023-02-27T08:39:07.201Z,97383.16
2023-02-27T08:41:35.026Z,97380.00
2023-02-27T08:44:02.982Z,97374.38
2023-02-27T08:46:30.759Z,97371.78
2023-02-27T08:48:58.518Z,97381.13
2023-02-27T08:51:26.648Z,97386.06
2023-02-27T08:53:58.802Z,97379.34
2023-02-27T08:56:26.914Z,97386.66
2023-02-27T08:58:55.000Z,97402.25
2023-02-27T09:01:22.772Z,97405.81
2023-02-27T09:03:50.927Z,97411.53
2023-02-27T09:06:18.597Z,97422.81
2023-02-27T09:08:46.354Z,97432.25
2023-02-27T09:11:14.076Z,97424.72
2023-02-27T09:13:41.774Z,97431.25
2023-02-27T09:16:10.284Z,97423.59
2023-02-27T09:18:38.105Z,97421.59
2023-02-27T09:21:05.966Z,97426.34
2023-02-27T09:23:33.716Z,97423.31
2023-02-27T09:26:01.372Z,97423.19
2023-02-27T09:28:29.299Z,97435.81
2023-02-27T09:31:01.128Z,97442.13
2023-02-27T09:33:29.317Z,97435.84
2023-02-27T09:35:57.116Z,97433.41
2023-02-27T09:38:25.375Z,97435.03
2023-02-27T09:40:53.828Z,97443.31
2023-02-27T09:43:43.647Z,97437.16
2023-02-27T09:46:19.069Z,97450.06
2023-02-27T09:48:52.137Z,97447.69
2023-02-27T09:51:19.985Z,97461.13
2023-02-27T09:54:05.943Z,97470.19
2023-02-27T09:56:48.727Z,97472.53
2023-02-27T09:59:48.236Z,97473.34
2023-02-27T10:02:24.879Z,97470.72
2023-02-27T10:04:55.349Z,97470.94
2023-02-27T10:07:33.732Z,97472.53
2023-02-27T10:10:26.213Z,97467.78
2023-02-27T10:13:06.414Z,97471.53
2023-02-27T10:15:37.641Z,97482.06
2023-02-27T10:18:25.549Z,97482.84
2023-02-27T10:20:55.463Z,97483.44
2023-02-27T10:23:34.450Z,97479.66
2023-02-27T10:26:02.223Z,97476.03
2023-02-27T10:28:29.945Z,97490.56
2023-02-27T10:30:58.732Z,97488.38
2023-02-27T10:33:37.474Z,97491.38
2023-02-27T10:36:15.955Z,97492.56
2023-02-27T10:38:59.761Z,97486.03
2023-02-27T10:41:28.240Z,97499.13
2023-02-27T10:43:57.986Z,97511.88
2023-02-27T10:46:29.992Z,97494.38
2023-02-27T10:49:01.970Z,97498.28
2023-02-27T10:51:31.620Z,97501.91
2023-02-27T10:54:24.294Z,97500.97
2023-02-27T10:57:00.263Z,97503.78
2023-02-27T10:59:27.902Z,97499.22
2023-02-27T11:01:57.218Z,97494.56
2023-02-27T11:04:36.517Z,97495.75
2023-02-27T11:07:10.057Z,97499.81
2023-02-27T11:09:37.938Z,97503.94
2023-02-27T11:12:24.418Z,97499.81
2023-02-27T11:15:03.309Z,97501.56
2023-02-27T11:17:32.864Z,97493.81
2023-02-27T11:20:01.727Z,97486.88
2023-02-27T11:22:30.484Z,97489.78
2023-02-27T11:25:19.128Z,97488.13
2023-02-27T11:27:47.215Z,97500.03
2023-02-27T11:30:27.292Z,97493.09
2023-02-27T11:32:56.585Z,97489.41
2023-02-27T11:35:28.768Z,97495.03
2023-02-27T11:37:59.125Z,97492.16
2023-02-27T11:40:50.802Z,97490.78
2023-02-27T11:43:28.422Z,97499.50
2023-02-27T11:46:04.805Z,97493.06
2023-02-27T11:48:48.901Z,97492.66
2023-02-27T11:51:26.051Z,97490.03
2023-02-27T11:54:20.934Z,97501.13
2023-02-27T11:56:52.769Z,97493.16
2023-02-27T11:59:39.370Z,97489.09
2023-02-27T12:02:09.857Z,97497.09
2023-02-27T12:04:57.508Z,97497.53
2023-02-27T12:07:44.974Z,97500.72
2023-02-27T12:10:20.452Z,97501.72
2023-02-27T12:13:01.255Z,97523.72
2023-02-27T12:15:52.914Z,97510.66
2023-02-27T12:18:23.822Z,97514.25
2023-02-27T12:21:10.705Z,97514.34
2023-02-27T12:23:53.486Z,97520.13
2023-02-27T12:26:22.368Z,97510.84
2023-02-27T12:29:20.909Z,97504.69
2023-02-27T12:32:21.347Z,97503.97
2023-02-27T12:34:54.620Z,97506.56
2023-02-27T12:37:29.043Z,97504.13
2023-02-27T12:39:59.118Z,97512.66
2023-02-27T12:43:09.449Z,97530.06
2023-02-27T12:46:08.093Z,97531.84
2023-02-27T12:49:11.760Z,97535.38
2023-02-27T12:52:12.953Z,97535.13
2023-02-27T12:55:06.697Z,97528.22
2023-02-27T12:57:49.616Z,97536.13
2023-02-27T13:00:24.710Z,97537.75
2023-02-27T13:03:23.463Z,97538.13
2023-02-27T13:05:53.829Z,97540.88
2023-02-27T13:08:44.939Z,97541.91
2023-02-27T13:11:43.594Z,97537.28
2023-02-27T13:14:24.746Z,97550.44
2023-02-27T13:17:25.814Z,97549.50
2023-02-27T13:20:21.487Z,97554.66
2023-02-27T13:23:23.885Z,97551.47
2023-02-27T13:25:51.718Z,97533.28
2023-02-27T13:28:26.581Z,97547.28
2023-02-27T13:31:20.736Z,97565.41
2023-02-27T13:33:54.523Z,97546.91
2023-02-27T13:36:28.092Z,97558.28
2023-02-27T13:38:55.889Z,97563.47
2023-02-27T13:41:23.449Z,97565.25
2023-02-27T13:43:53.134Z,97565.06
2023-02-27T13:46:24.725Z,97565.78
2023-02-27T13:49:28.180Z,97573.72
2023-02-27T13:51:59.392Z,97566.03
2023-02-27T13:54:40.348Z,97571.72
2023-02-27T13:57:18.114Z,97561.78
2023-02-27T13:59:58.022Z,97556.53
2023-02-27T14:02:33.852Z,97562.34
2023-02-27T14:05:04.057Z,97565.06
2023-02-27T14:07:48.841Z,97565.66
2023-02-27T14:10:24.152Z,97569.38
2023-02-27T14:12:53.042Z,97563.66
2023-02-27T14:15:26.609Z,97562.03
2023-02-27T14:18:05.851Z,97551.94
2023-02-27T14:20:40.187Z,97542.41
2023-02-27T14:23:17.097Z,97543.84
2023-02-27T14:25:55.375Z,97552.75
2023-02-27T14:28:36.341Z,97550.31
2023-02-27T14:31:06.045Z,97550.03
2023-02-27T14:33:42.156Z,97560.47
2023-02-27T14:36:17.011Z,97564.16
2023-02-27T14:38:44.818Z,97561.72
2023-02-27T14:41:30.917Z,97554.28
2023-02-27T14:43:58.666Z,97550.34
2023-02-27T14:46:31.912Z,97566.25
2023-02-27T14:49:01.951Z,97579.25
2023-02-27T14:51:32.524Z,97565.09
2023-02-27T14:54:07.238Z,97591.53
2023-02-27T14:56:35.020Z,97598.00
2023-02-27T14:59:04.646Z,97608.50
2023-02-27T15:01:36.053Z,97600.91
2023-02-27T15:04:04.498Z,97597.69
2023-02-27T15:06:36.675Z,97596.28
2023-02-27T15:09:04.538Z,97607.53
2023-02-27T15:11:32.197Z,97613.75
2023-02-27T15:14:04.681Z,97630.03
2023-02-27T15:16:37.689Z,97637.72
2023-02-27T15:19:11.981Z,97636.88
2023-02-27T15:21:43.159Z,97641.94
2023-02-27T15:24:27.748Z,97627.59
2023-02-27T15:27:00.446Z,97613.31
2023-02-27T15:29:33.157Z,97607.28
2023-02-27T15:32:01.415Z,97619.47
2023-02-27T15:34:30.757Z,97633.03
2023-02-27T15:36:59.110Z,97637.66
2023-02-27T15:39:28.801Z,97639.28
2023-02-27T15:41:58.599Z,97629.69
2023-02-27T15:44:29.292Z,97640.19
2023-02-27T15:46:57.226Z,97643.50
2023-02-27T15:49:25.052Z,97639.41
2023-02-27T15:52:02.967Z,97654.78
2023-02-27T15:54:34.599Z,97667.28
2023-02-27T15:57:05.177Z,97666.50
2023-02-27T15:59:34.854Z,97675.94
2023-02-27T16:02:04.201Z,97667.38
2023-02-27T16:04:33.296Z,97661.94
2023-02-27T16:07:06.307Z,97668.66
2023-02-27T16:09:35.328Z,97687.91
2023-02-27T16:12:20.605Z,97681.19
2023-02-27T16:14:49.028Z,97695.56
2023-02-27T16:17:26.826Z,97683.53
2023-02-27T16:19:55.477Z,97697.72
2023-02-27T16:22:23.238Z,97720.09
2023-02-27T16:24:51.268Z,97724.06
2023-02-27T16:27:18.950Z,97728.03
2023-02-27T16:29:46.687Z,97730.81
2023-02-27T16:32:28.873Z,97728.41
2023-02-27T16:35:08.017Z,97725.06
2023-02-27T16:37:38.040Z,97727.25
2023-02-27T16:40:25.462Z,97728.75
2023-02-27T16:42:53.406Z,97719.81
2023-02-27T16:45:25.858Z,97721.66
2023-02-27T16:47:57.877Z,97732.38
2023-02-27T16:50:42.971Z,97738.06
2023-02-27T16:53:10.772Z,97730.38
2023-02-27T16:55:39.360Z,97729.94
2023-02-27T16:58:07.078Z,97730.00
2023-02-27T17:00:34.917Z,97730.03
2023-02-27T17:03:02.742Z,97740.69
2023-02-27T17:05:30.569Z,97747.38
2023-02-27T17:07:58.240Z,97730.81
2023-02-27T17:10:26.307Z,97736.91
2023-02-27T17:12:54.073Z,97747.38
2023-02-27T17:15:22.116Z,97743.47
2023-02-27T17:17:49.774Z,97745.03
2023-02-27T17:20:17.701Z,97746.22
2023-02-27T17:22:45.486Z,97752.97
2023-02-27T17:25:13.547Z,97754.94
2023-02-27T17:27:44.479Z,97755.56
2023-02-27T17:30:13.284Z,97756.13
2023-02-27T17:32:41.055Z,97766.41
2023-02-27T17:35:09.281Z,97766.31
2023-02-27T17:37:37.090Z,97752.66
2023-02-27T17:40:06.325Z,97745.59
2023-02-27T17:42:36.028Z,97760.06
2023-02-27T17:45:05.612Z,97743.53
2023-02-27T17:47:33.565Z,97748.50
2023-02-27T17:50:01.316Z,97767.19
2023-02-27T17:52:29.092Z,97790.63
2023-02-27T17:54:56.927Z,97800.16
2023-02-27T17:57:24.601Z,97807.63
2023-02-27T17:59:52.329Z,97798.47
2023-02-27T18:02:20.200Z,97780.69
2023-02-27T18:04:48.422Z,97781.19
2023-02-27T18:07:16.213Z,97784.59
2023-02-27T18:09:45.760Z,97789.03
2023-02-27T18:12:13.463Z,97791.00
2023-02-27T18:14:41.162Z,97791.69
2023-02-27T18:17:12.059Z,97788.34
2023-02-27T18:19:41.604Z,97803.03
2023-02-27T18:22:10.010Z,97807.13
2023-02-27T18:24:38.236Z,97814.09
2023-02-27T18:27:05.970Z,97818.63
2023-02-27T18:29:33.817Z,97827.44
2023-02-27T18:32:01.548Z,97838.22
2023-02-27T18:34:29.327Z,97840.47
2023-02-27T18:36:58.263Z,97849.44
2023-02-27T18:39:26.164Z,97849.44
2023-02-27T18:41:53.850Z,97854.00
2023-02-27T18:44:21.583Z,97844.69
2023-02-27T18:46:49.438Z,97848.72
2023-02-27T18:49:17.255Z,97843.56
2023-02-27T18:51:44.936Z,97833.13
2023-02-27T18:54:13.733Z,97843.78
2023-02-27T18:56:41.522Z,97833.00
2023-02-27T18:59:09.395Z,97826.34
2023-02-27T19:01:37.765Z,97813.16
2023-02-27T19:04:07.175Z,97795.09
2023-02-27T19:06:40.996Z,97805.69
2023-02-27T19:09:11.830Z,97789.34
2023-02-27T19:11:39.544Z,97784.50
2023-02-27T19:14:08.489Z,97785.78
2023-02-27T19:16:36.317Z,97779.81
2023-02-27T19:19:04.952Z,97784.84
2023-02-27T19:21:32.729Z,97775.38
2023-02-27T19:24:00.778Z,97780.72
2023-02-27T19:26:29.083Z,97796.56
2023-02-27T19:28:57.274Z,97799.34
2023-02-27T19:31:25.036Z,97803.56
2023-02-27T19:33:52.843Z,97802.47
2023-02-27T19:36:21.808Z,97790.91
2023-02-27T19:38:49.665Z,97791.28
2023-02-27T19:41:17.805Z,97803.53
2023-02-27T19:43:45.864Z,97806.59
2023-02-27T19:46:18.570Z,97814.28
2023-02-27T19:48:46.438Z,97835.56
2023-02-27T19:51:14.603Z,97822.41
2023-02-27T19:53:43.183Z,97820.84
2023-02-27T19:56:12.822Z,97813.63
2023-02-27T19:58:40.819Z,97814.03
2023-02-27T20:01:09.835Z,97824.44
2023-02-27T20:03:38.069Z,97804.81
2023-02-27T20:06:06.434Z,97809.09
2023-02-27T20:08:34.235Z,97811.97
2023-02-27T20:11:04.334Z,97823.69
2023-02-27T20:13:32.057Z,97828.13
2023-02-27T20:16:07.488Z,97826.63
2023-02-27T20:18:39.326Z,97841.16
2023-02-27T20:21:10.616Z,97839.50
2023-02-27T20:23:39.326Z,97844.44
2023-02-27T20:26:23.330Z,97853.00
2023-02-27T20:28:52.157Z,97854.81
2023-02-27T20:31:21.267Z,97856.00
2023-02-27T20:33:49.264Z,97851.31
2023-02-27T20:36:17.191Z,97852.53
2023-02-27T20:38:45.007Z,97860.13
2023-02-27T20:41:17.270Z,97866.09
2023-02-27T20:43:45.107Z,97867.81
2023-02-27T20:46:20.432Z,97865.38
2023-02-27T20:48:48.163Z,97865.53
2023-02-27T20:51:20.131Z,97858.00
2023-02-27T20:53:51.572Z,97865.34
2023-02-27T20:56:23.734Z,97874.22
2023-02-27T20:58:51.501Z,97874.31
2023-02-27T21:01:19.352Z,97884.34
2023-02-27T21:03:47.295Z,97888.94
2023-02-27T21:06:15.447Z,97883.63
2023-02-27T21:08:45.507Z,97888.31
2023-02-27T21:11:18.324Z,97891.69
2023-02-27T21:13:47.169Z,97887.81
2023-02-27T21:16:15.906Z,97889.81
2023-02-27T21:18:44.037Z,97888.84
2023-02-27T21:21:15.027Z,97885.69
2023-02-27T21:23:42.957Z,97877.09
2023-02-27T21:26:18.200Z,97880.50
2023-02-27T21:28:52.133Z,97875.81
2023-02-27T21:31:21.089Z,97892.91
2023-02-27T21:33:49.300Z,97910.38
2023-02-27T21:36:17.189Z,97901.81
2023-02-27T21:38:45.988Z,97906.41
2023-02-27T21:41:13.704Z,97897.06
2023-02-27T21:43:41.441Z,97896.31
2023-02-27T21:46:12.651Z,97908.63
2023-02-27T21:48:40.447Z,97913.94
2023-02-27T21:51:08.160Z,97914.97
2023-02-27T21:53:36.950Z,97917.53
2023-02-27T21:56:05.988Z,97906.94
2023-02-27T21:58:33.914Z,97912.16
2023-02-27T22:01:01.690Z,97912.38
2023-02-27T22:03:34.315Z,97921.03
2023-02-27T22:06:02.198Z,97926.56
2023-02-27T22:08:29.915Z,97922.47
2023-02-27T22:10:58.169Z,97924.28
2023-02-27T22:13:26.328Z,97920.31
2023-02-27T22:15:54.207Z,97929.44
2023-02-27T22:18:21.906Z,97934.56
2023-02-27T22:20:49.681Z,97925.22
2023-02-27T22:23:17.473Z,97931.47
2023-02-27T22:25:45.265Z,97932.19
2023-02-27T22:28:12.997Z,97936.94
2023-02-27T22:30:40.789Z,97943.94
2023-02-27T22:33:08.722Z,97949.00
2023-02-27T22:35:36.718Z,97952.72
2023-02-27T22:38:04.449Z,97972.34
2023-02-27T22:40:35.898Z,97970.59
2023-02-27T22:43:03.929Z,97972.50
2023-02-27T22:45:31.612Z,97976.84
2023-02-27T22:47:59.307Z,97979.84
2023-02-27T22:50:27.088Z,97972.19
2023-02-27T22:52:54.766Z,97983.22
2023-02-27T22:55:22.543Z,97983.41
2023-02-27T22:57:51.805Z,97992.84
2023-02-27T23:00:19.595Z,98006.63
2023-02-27T23:02:47.250Z,98000.03
2023-02-27T23:05:15.029Z,98002.22
2023-02-27T23:07:43.694Z,98007.00
2023-02-27T23:10:12.266Z,98006.09
2023-02-27T23:12:39.956Z,98008.31
2023-02-27T23:15:08.482Z,98011.44
2023-02-27T23:17:38.149Z,98020.19
2023-02-27T23:20:11.838Z,98027.16
2023-02-27T23:22:39.497Z,98030.41
2023-02-27T23:25:09.167Z,98037.94
2023-02-27T23:27:36.852Z,98028.41
2023-02-27T23:30:05.004Z,98034.78
2023-02-27T23:32:43.625Z,98032.91
2023-02-27T23:35:12.187Z,98023.13
2023-02-27T23:37:39.964Z,98018.38
2023-02-27T23:40:08.207Z,98008.94
2023-02-27T23:42:35.980Z,97993.06
2023-02-27T23:45:22.238Z,97987.66
2023-02-27T23:47:54.877Z,97976.69
2023-02-27T23:50:25.154Z,97975.44
2023-02-27T23:52:53.741Z,97974.47
2023-02-27T23:55:22.689Z,97984.69
2023-02-27T23:57:53.756Z,97987.94
